Snoqualmie River: Snoqualmie Falls station

back to: Snoqualmie river
Snoqualmie Falls station Summary - (NOAA Hydrograph: SQUW1)
flood stage: 12.88 ft
Latest reading:
Mon10/15 10:55 am 2.85 ft 502 cfs (steady)
Past 24hr max:
Sun10/14 11:25 am 2.99 ft 556 cfs
Forecasted crests: (published Mon 10/15/18 08:06 am)
Wed10/24 05:00 am 2.93 ft 531 cfs

Snoqualmie Falls station Details

Latest Readings

Last 100 Readings:
Mon10/15 10:55 am 2.85 ft 502 cfs
Mon10/15 10:50 am 2.85 ft 502 cfs
Mon10/15 10:45 am 2.84 ft 499 cfs
Mon10/15 10:40 am 2.84 ft 499 cfs
Mon10/15 10:35 am 2.85 ft 502 cfs
Mon10/15 10:30 am 2.84 ft 499 cfs
Mon10/15 10:25 am 2.84 ft 499 cfs
Mon10/15 10:20 am 2.84 ft 499 cfs
Mon10/15 10:15 am 2.85 ft 502 cfs
Mon10/15 10:10 am 2.85 ft 502 cfs
Mon10/15 10:05 am 2.85 ft 502 cfs
Mon10/15 10:00 am 2.84 ft 499 cfs
Mon10/15 09:55 am 2.85 ft 502 cfs
Mon10/15 09:50 am 2.85 ft 502 cfs
Mon10/15 09:45 am 2.85 ft 502 cfs
Mon10/15 09:40 am 2.85 ft 502 cfs
Mon10/15 09:35 am 2.85 ft 502 cfs
Mon10/15 09:30 am 2.85 ft 502 cfs
Mon10/15 09:25 am 2.86 ft 506 cfs
Mon10/15 09:20 am 2.85 ft 502 cfs
Mon10/15 09:15 am 2.86 ft 506 cfs
Mon10/15 09:10 am 2.86 ft 506 cfs
Mon10/15 09:05 am 2.86 ft 506 cfs
Mon10/15 09:00 am 2.85 ft 502 cfs
Mon10/15 08:55 am 2.86 ft 506 cfs
Mon10/15 08:50 am 2.86 ft 506 cfs
Mon10/15 08:45 am 2.86 ft 506 cfs
Mon10/15 08:40 am 2.86 ft 506 cfs
Mon10/15 08:35 am 2.87 ft 510 cfs
Mon10/15 08:30 am 2.86 ft 506 cfs
Mon10/15 08:25 am 2.87 ft 510 cfs
Mon10/15 08:20 am 2.87 ft 510 cfs
Mon10/15 08:15 am 2.87 ft 510 cfs
Mon10/15 08:10 am 2.86 ft 506 cfs
Mon10/15 08:05 am 2.87 ft 510 cfs
Mon10/15 08:00 am 2.87 ft 510 cfs
Mon10/15 07:55 am 2.86 ft 506 cfs
Mon10/15 07:50 am 2.86 ft 506 cfs
Mon10/15 07:45 am 2.86 ft 506 cfs
Mon10/15 07:40 am 2.87 ft 510 cfs
Mon10/15 07:35 am 2.87 ft 510 cfs
Mon10/15 07:30 am 2.87 ft 510 cfs
Mon10/15 07:25 am 2.87 ft 510 cfs
Mon10/15 07:20 am 2.87 ft 510 cfs
Mon10/15 07:15 am 2.87 ft 510 cfs
Mon10/15 07:10 am 2.87 ft 510 cfs
Mon10/15 07:05 am 2.87 ft 510 cfs
Mon10/15 07:00 am 2.86 ft 506 cfs
Mon10/15 06:55 am 2.87 ft 510 cfs
Mon10/15 06:50 am 2.87 ft 510 cfs
Mon10/15 06:45 am 2.87 ft 510 cfs
Mon10/15 06:40 am 2.86 ft 506 cfs
Mon10/15 06:35 am 2.86 ft 506 cfs
Mon10/15 06:30 am 2.86 ft 506 cfs
Mon10/15 06:25 am 2.87 ft 510 cfs
Mon10/15 06:20 am 2.86 ft 506 cfs
Mon10/15 06:15 am 2.86 ft 506 cfs
Mon10/15 06:10 am 2.87 ft 510 cfs
Mon10/15 06:05 am 2.87 ft 510 cfs
Mon10/15 06:00 am 2.87 ft 510 cfs
Mon10/15 05:55 am 2.87 ft 510 cfs
Mon10/15 05:50 am 2.87 ft 510 cfs
Mon10/15 05:45 am 2.88 ft 514 cfs
Mon10/15 05:40 am 2.87 ft 510 cfs
Mon10/15 05:35 am 2.87 ft 510 cfs
Mon10/15 05:30 am 2.87 ft 510 cfs
Mon10/15 05:25 am 2.87 ft 510 cfs
Mon10/15 05:20 am 2.88 ft 514 cfs
Mon10/15 05:15 am 2.87 ft 510 cfs
Mon10/15 05:10 am 2.88 ft 514 cfs
Mon10/15 05:05 am 2.88 ft 514 cfs
Mon10/15 05:00 am 2.88 ft 514 cfs
Mon10/15 04:55 am 2.88 ft 514 cfs
Mon10/15 04:50 am 2.88 ft 514 cfs
Mon10/15 04:45 am 2.87 ft 510 cfs
Mon10/15 04:40 am 2.88 ft 514 cfs
Mon10/15 04:35 am 2.88 ft 514 cfs
Mon10/15 04:30 am 2.88 ft 514 cfs
Mon10/15 04:25 am 2.87 ft 510 cfs
Mon10/15 04:20 am 2.88 ft 514 cfs
Mon10/15 04:15 am 2.88 ft 514 cfs
Mon10/15 04:10 am 2.88 ft 514 cfs
Mon10/15 04:05 am 2.87 ft 510 cfs
Mon10/15 04:00 am 2.87 ft 510 cfs
Mon10/15 03:55 am 2.88 ft 514 cfs
Mon10/15 03:50 am 2.88 ft 514 cfs
Mon10/15 03:45 am 2.87 ft 510 cfs
Mon10/15 03:40 am 2.88 ft 514 cfs
Mon10/15 03:35 am 2.89 ft 518 cfs
Mon10/15 03:30 am 2.88 ft 514 cfs
Mon10/15 03:25 am 2.88 ft 514 cfs
Mon10/15 03:20 am 2.89 ft 518 cfs
Mon10/15 03:15 am 2.89 ft 518 cfs
Mon10/15 03:10 am 2.89 ft 518 cfs
Mon10/15 03:05 am 2.89 ft 518 cfs
Mon10/15 03:00 am 2.89 ft 518 cfs
Mon10/15 02:55 am 2.89 ft 518 cfs
Mon10/15 02:50 am 2.9 ft 521 cfs
Mon10/15 02:45 am 2.89 ft 518 cfs
Mon10/15 02:40 am 2.89 ft 518 cfs

Latest Forecasts

Currently Forecasted Readings:
Mon10/15 11:00 am 2.85 ft 503 cfs
Mon10/15 05:00 pm 2.83 ft 493 cfs
Mon10/15 11:00 pm 2.8 ft 484 cfs
Tue10/16 05:00 am 2.78 ft 476 cfs
Tue10/16 11:00 am 2.75 ft 468 cfs
Tue10/16 05:00 pm 2.73 ft 461 cfs
Tue10/16 11:00 pm 2.72 ft 454 cfs
Wed10/17 05:00 am 2.7 ft 448 cfs
Wed10/17 11:00 am 2.68 ft 442 cfs
Wed10/17 05:00 pm 2.67 ft 436 cfs
Wed10/17 11:00 pm 2.65 ft 431 cfs
Thu10/18 05:00 am 2.63 ft 426 cfs
Thu10/18 11:00 am 2.62 ft 421 cfs
Thu10/18 05:00 pm 2.61 ft 417 cfs
Thu10/18 11:00 pm 2.6 ft 413 cfs
Fri10/19 05:00 am 2.59 ft 410 cfs
Fri10/19 11:00 am 2.58 ft 406 cfs
Fri10/19 05:00 pm 2.56 ft 402 cfs
Fri10/19 11:00 pm 2.55 ft 399 cfs
Sat10/20 05:00 am 2.54 ft 395 cfs
Sat10/20 11:00 am 2.53 ft 392 cfs
Sat10/20 05:00 pm 2.52 ft 389 cfs
Sat10/20 11:00 pm 2.51 ft 386 cfs
Sun10/21 05:00 am 2.51 ft 383 cfs
Sun10/21 11:00 am 2.5 ft 381 cfs
Sun10/21 05:00 pm 2.49 ft 379 cfs
Sun10/21 11:00 pm 2.49 ft 377 cfs
Mon10/22 05:00 am 2.49 ft 377 cfs
Mon10/22 11:00 am 2.48 ft 376 cfs
Mon10/22 05:00 pm 2.48 ft 376 cfs
Mon10/22 11:00 pm 2.48 ft 375 cfs
Tue10/23 05:00 am 2.48 ft 376 cfs
Tue10/23 11:00 am 2.55 ft 399 cfs
Tue10/23 05:00 pm 2.67 ft 439 cfs
Tue10/23 11:00 pm 2.8 ft 485 cfs
Wed10/24 05:00 am 2.93 ft 531 cfs
Wed10/24 11:00 am 2.91 ft 524 cfs
Wed10/24 05:00 pm 2.98 ft 551 cfs
Wed10/24 11:00 pm 3.56 ft 820 cfs
Thu10/25 05:00 am 3.97 ft 1061 cfs

Snoqualmie River flood gauge data supplied by the
National Weather Service Northwest River Forecast Center.

Sign up for Floodzilla alerts.